sensor_id;sensor_type;location;lat;lon;timestamp;pressure;altitude;pressure_sealevel;temperature
65316;BMP280;51920;53.952;10.292;2023-06-22T00:01:18;101567.34;;;16.53
65316;BMP280;51920;53.952;10.292;2023-06-22T00:03:45;101537.75;;;16.41
65316;BMP280;51920;53.952;10.292;2023-06-22T00:06:12;101575.91;;;16.63
65316;BMP280;51920;53.952;10.292;2023-06-22T00:08:39;101573.56;;;16.61
65316;BMP280;51920;53.952;10.292;2023-06-22T00:11:06;101576.69;;;16.59
65316;BMP280;51920;53.952;10.292;2023-06-22T00:13:33;101568.50;;;16.56
65316;BMP280;51920;53.952;10.292;2023-06-22T00:16:00;101577.50;;;16.60
65316;BMP280;51920;53.952;10.292;2023-06-22T00:18:26;101581.38;;;16.63
65316;BMP280;51920;53.952;10.292;2023-06-22T00:20:55;101579.06;;;16.54
65316;BMP280;51920;53.952;10.292;2023-06-22T00:23:25;101583.44;;;16.44
65316;BMP280;51920;53.952;10.292;2023-06-22T00:25:52;101585.09;;;16.27
65316;BMP280;51920;53.952;10.292;2023-06-22T00:28:19;101588.63;;;16.28
65316;BMP280;51920;53.952;10.292;2023-06-22T00:30:46;101580.81;;;16.30
65316;BMP280;51920;53.952;10.292;2023-06-22T00:33:13;101578.44;;;16.32
65316;BMP280;51920;53.952;10.292;2023-06-22T00:35:40;101581.63;;;16.20
65316;BMP280;51920;53.952;10.292;2023-06-22T00:38:08;101567.22;;;16.12
65316;BMP280;51920;53.952;10.292;2023-06-22T00:40:35;101591.41;;;16.24
65316;BMP280;51920;53.952;10.292;2023-06-22T00:43:03;101570.78;;;16.02
65316;BMP280;51920;53.952;10.292;2023-06-22T00:45:29;101590.59;;;16.24
65316;BMP280;51920;53.952;10.292;2023-06-22T00:47:57;101587.88;;;16.20
65316;BMP280;51920;53.952;10.292;2023-06-22T00:50:26;101586.34;;;16.16
65316;BMP280;51920;53.952;10.292;2023-06-22T00:52:57;101587.16;;;16.05
65316;BMP280;51920;53.952;10.292;2023-06-22T00:55:25;101583.25;;;15.99
65316;BMP280;51920;53.952;10.292;2023-06-22T00:57:55;101578.66;;;15.93
65316;BMP280;51920;53.952;10.292;2023-06-22T01:00:25;101566.59;;;15.76
65316;BMP280;51920;53.952;10.292;2023-06-22T01:02:53;101580.19;;;15.90
65316;BMP280;51920;53.952;10.292;2023-06-22T01:05:21;101579.81;;;15.88
65316;BMP280;51920;53.952;10.292;2023-06-22T01:10:32;101596.25;;;15.81
65316;BMP280;51920;53.952;10.292;2023-06-22T01:13:07;101591.16;;;15.79
65316;BMP280;51920;53.952;10.292;2023-06-22T01:15:41;101587.28;;;15.80
65316;BMP280;51920;53.952;10.292;2023-06-22T01:18:09;101576.38;;;15.69
65316;BMP280;51920;53.952;10.292;2023-06-22T01:20:36;101598.25;;;15.62
65316;BMP280;51920;53.952;10.292;2023-06-22T01:23:26;101595.50;;;15.69
65316;BMP280;51920;53.952;10.292;2023-06-22T01:29:04;101592.75;;;15.77
65316;BMP280;51920;53.952;10.292;2023-06-22T01:31:32;101583.38;;;15.70
65316;BMP280;51920;53.952;10.292;2023-06-22T01:34:03;101596.66;;;15.76
65316;BMP280;51920;53.952;10.292;2023-06-22T01:36:32;101595.09;;;15.82
65316;BMP280;51920;53.952;10.292;2023-06-22T01:39:00;101582.59;;;15.74
65316;BMP280;51920;53.952;10.292;2023-06-22T01:41:30;101584.56;;;15.69
65316;BMP280;51920;53.952;10.292;2023-06-22T01:43:57;101570.94;;;15.62
65316;BMP280;51920;53.952;10.292;2023-06-22T01:46:24;101568.19;;;15.62
65316;BMP280;51920;53.952;10.292;2023-06-22T01:48:51;101559.22;;;15.58
65316;BMP280;51920;53.952;10.292;2023-06-22T01:51:17;101566.22;;;15.66
65316;BMP280;51920;53.952;10.292;2023-06-22T01:53:44;101563.94;;;15.54
65316;BMP280;51920;53.952;10.292;2023-06-22T01:56:11;101569.41;;;15.54
65316;BMP280;51920;53.952;10.292;2023-06-22T01:58:57;101569.41;;;15.40
65316;BMP280;51920;53.952;10.292;2023-06-22T02:01:28;101554.22;;;15.24
65316;BMP280;51920;53.952;10.292;2023-06-22T02:04:05;101582.31;;;15.36
65316;BMP280;51920;53.952;10.292;2023-06-22T02:06:37;101586.56;;;15.37
65316;BMP280;51920;53.952;10.292;2023-06-22T02:09:11;101586.97;;;15.35
65316;BMP280;51920;53.952;10.292;2023-06-22T02:11:41;101596.72;;;15.33
65316;BMP280;51920;53.952;10.292;2023-06-22T02:14:08;101595.94;;;15.25
65316;BMP280;51920;53.952;10.292;2023-06-22T02:16:35;101593.59;;;15.27
65316;BMP280;51920;53.952;10.292;2023-06-22T02:19:02;101585.00;;;15.21
65316;BMP280;51920;53.952;10.292;2023-06-22T02:21:33;101588.16;;;15.09
65316;BMP280;51920;53.952;10.292;2023-06-22T02:24:00;101579.16;;;15.09
65316;BMP280;51920;53.952;10.292;2023-06-22T02:26:30;101579.97;;;15.09
65316;BMP280;51920;53.952;10.292;2023-06-22T02:28:57;101578.00;;;15.06
65316;BMP280;51920;53.952;10.292;2023-06-22T02:31:23;101585.81;;;15.00
65316;BMP280;51920;53.952;10.292;2023-06-22T02:33:58;101592.06;;;15.01
65316;BMP280;51920;53.952;10.292;2023-06-22T02:36:25;101600.59;;;15.03
65316;BMP280;51920;53.952;10.292;2023-06-22T02:38:54;101599.84;;;15.06
65316;BMP280;51920;53.952;10.292;2023-06-22T02:41:22;101580.34;;;14.93
65316;BMP280;51920;53.952;10.292;2023-06-22T02:43:49;101595.94;;;15.07
65316;BMP280;51920;53.952;10.292;2023-06-22T02:46:18;101584.25;;;15.07
65316;BMP280;51920;53.952;10.292;2023-06-22T02:48:45;101588.53;;;15.04
65316;BMP280;51920;53.952;10.292;2023-06-22T02:51:12;101580.75;;;15.06
65316;BMP280;51920;53.952;10.292;2023-06-22T02:53:39;101578.41;;;15.04
65316;BMP280;51920;53.952;10.292;2023-06-22T02:56:05;101568.66;;;15.07
65316;BMP280;51920;53.952;10.292;2023-06-22T02:58:35;101581.91;;;15.12
65316;BMP280;51920;53.952;10.292;2023-06-22T03:01:08;101577.22;;;15.16
65316;BMP280;51920;53.952;10.292;2023-06-22T03:03:36;101584.25;;;15.10
65316;BMP280;51920;53.952;10.292;2023-06-22T03:06:03;101587.75;;;15.07
65316;BMP280;51920;53.952;10.292;2023-06-22T03:08:30;101596.72;;;15.15
65316;BMP280;51920;53.952;10.292;2023-06-22T03:10:57;101591.25;;;15.15
65316;BMP280;51920;53.952;10.292;2023-06-22T03:13:23;101589.31;;;15.19
65316;BMP280;51920;53.952;10.292;2023-06-22T03:15:50;101580.38;;;15.25
65316;BMP280;51920;53.952;10.292;2023-06-22T03:18:17;101577.25;;;15.23
65316;BMP280;51920;53.952;10.292;2023-06-22T03:20:43;101592.44;;;15.24
65316;BMP280;51920;53.952;10.292;2023-06-22T03:23:10;101586.97;;;15.24
65316;BMP280;51920;53.952;10.292;2023-06-22T03:25:37;101588.16;;;15.13
65316;BMP280;51920;53.952;10.292;2023-06-22T03:28:04;101597.88;;;15.17
65316;BMP280;51920;53.952;10.292;2023-06-22T03:30:31;101591.66;;;15.20
65316;BMP280;51920;53.952;10.292;2023-06-22T03:32:59;101582.69;;;15.16
65316;BMP280;51920;53.952;10.292;2023-06-22T03:35:26;101597.50;;;15.22
65316;BMP280;51920;53.952;10.292;2023-06-22T03:37:53;101599.47;;;15.18
65316;BMP280;51920;53.952;10.292;2023-06-22T03:40:20;101594.38;;;15.20
65316;BMP280;51920;53.952;10.292;2023-06-22T03:42:46;101600.63;;;15.24
65316;BMP280;51920;53.952;10.292;2023-06-22T03:45:13;101599.06;;;15.27
65316;BMP280;51920;53.952;10.292;2023-06-22T03:47:40;101568.66;;;15.07
65316;BMP280;51920;53.952;10.292;2023-06-22T03:50:07;101594.00;;;15.25
65316;BMP280;51920;53.952;10.292;2023-06-22T03:52:34;101602.97;;;15.30
65316;BMP280;51920;53.952;10.292;2023-06-22T03:55:01;101601.78;;;15.38
65316;BMP280;51920;53.952;10.292;2023-06-22T03:57:28;101602.16;;;15.43
65316;BMP280;51920;53.952;10.292;2023-06-22T03:59:56;101613.88;;;15.47
65316;BMP280;51920;53.952;10.292;2023-06-22T04:02:23;101615.44;;;15.52
65316;BMP280;51920;53.952;10.292;2023-06-22T04:04:50;101611.50;;;15.53
65316;BMP280;51920;53.952;10.292;2023-06-22T04:07:17;101612.69;;;15.63
65316;BMP280;51920;53.952;10.292;2023-06-22T04:09:44;101598.22;;;15.66
65316;BMP280;51920;53.952;10.292;2023-06-22T04:12:11;101600.13;;;15.73
65316;BMP280;51920;53.952;10.292;2023-06-22T04:14:37;101597.41;;;15.76
65316;BMP280;51920;53.952;10.292;2023-06-22T04:17:04;101620.03;;;15.91
65316;BMP280;51920;53.952;10.292;2023-06-22T04:19:31;101615.69;;;15.97
65316;BMP280;51920;53.952;10.292;2023-06-22T04:21:57;101623.09;;;16.07
65316;BMP280;51920;53.952;10.292;2023-06-22T04:24:24;101627.72;;;16.18
65316;BMP280;51920;53.952;10.292;2023-06-22T04:26:50;101619.88;;;16.27
65316;BMP280;51920;53.952;10.292;2023-06-22T04:29:21;101618.63;;;16.46
65316;BMP280;51920;53.952;10.292;2023-06-22T04:31:56;101620.47;;;16.63
65316;BMP280;51920;53.952;10.292;2023-06-22T04:34:25;101623.81;;;16.85
65316;BMP280;51920;53.952;10.292;2023-06-22T04:36:52;101613.22;;;16.94
65316;BMP280;51920;53.952;10.292;2023-06-22T04:39:19;101627.56;;;17.09
65316;BMP280;51920;53.952;10.292;2023-06-22T04:41:46;101624.69;;;17.23
65316;BMP280;51920;53.952;10.292;2023-06-22T04:44:19;101631.28;;;17.30
65316;BMP280;51920;53.952;10.292;2023-06-22T04:47:22;101621.47;;;17.36
65316;BMP280;51920;53.952;10.292;2023-06-22T04:49:50;101628.34;;;17.47
65316;BMP280;51920;53.952;10.292;2023-06-22T04:52:17;101628.69;;;17.53
65316;BMP280;51920;53.952;10.292;2023-06-22T04:54:44;101623.97;;;17.57
65316;BMP280;51920;53.952;10.292;2023-06-22T04:57:21;101626.97;;;17.70
65316;BMP280;51920;53.952;10.292;2023-06-22T04:59:57;101631.22;;;17.75
65316;BMP280;51920;53.952;10.292;2023-06-22T05:02:23;101631.56;;;17.80
65316;BMP280;51920;53.952;10.292;2023-06-22T05:04:54;101612.09;;;17.71
65316;BMP280;51920;53.952;10.292;2023-06-22T05:07:23;101634.19;;;17.87
65316;BMP280;51920;53.952;10.292;2023-06-22T05:09:51;101634.91;;;17.91
65316;BMP280;51920;53.952;10.292;2023-06-22T05:12:18;101628.19;;;18.00
65316;BMP280;51920;53.952;10.292;2023-06-22T05:14:45;101618.78;;;18.01
65316;BMP280;51920;53.952;10.292;2023-06-22T05:17:11;101625.28;;;18.14
65316;BMP280;51920;53.952;10.292;2023-06-22T05:19:41;101637.03;;;18.11
65316;BMP280;51920;53.952;10.292;2023-06-22T05:22:15;101643.25;;;18.15
65316;BMP280;51920;53.952;10.292;2023-06-22T05:24:42;101635.41;;;18.17
65316;BMP280;51920;53.952;10.292;2023-06-22T05:27:10;101637.72;;;18.19
65316;BMP280;51920;53.952;10.292;2023-06-22T05:29:37;101642.31;;;18.25
65316;BMP280;51920;53.952;10.292;2023-06-22T05:32:04;101650.16;;;18.27
65316;BMP280;51920;53.952;10.292;2023-06-22T05:34:31;101651.31;;;18.29
65316;BMP280;51920;53.952;10.292;2023-06-22T05:36:58;101656.72;;;18.33
65316;BMP280;51920;53.952;10.292;2023-06-22T05:39:27;101656.34;;;18.31
65316;BMP280;51920;53.952;10.292;2023-06-22T05:41:54;101658.72;;;18.32
65316;BMP280;51920;53.952;10.292;2023-06-22T05:44:21;101666.47;;;18.38
65316;BMP280;51920;53.952;10.292;2023-06-22T05:46:48;101657.84;;;18.39
65316;BMP280;51920;53.952;10.292;2023-06-22T05:49:15;101651.59;;;18.39
65316;BMP280;51920;53.952;10.292;2023-06-22T05:51:42;101663.28;;;18.43
65316;BMP280;51920;53.952;10.292;2023-06-22T05:54:09;101663.22;;;18.46
65316;BMP280;51920;53.952;10.292;2023-06-22T05:56:36;101660.47;;;18.46
65316;BMP280;51920;53.952;10.292;2023-06-22T05:59:04;101669.41;;;18.50
65316;BMP280;51920;53.952;10.292;2023-06-22T06:01:31;101670.13;;;18.58
65316;BMP280;51920;53.952;10.292;2023-06-22T06:04:02;101672.41;;;18.63
65316;BMP280;51920;53.952;10.292;2023-06-22T06:06:30;101671.16;;;18.68
65316;BMP280;51920;53.952;10.292;2023-06-22T06:08:57;101668.34;;;18.71
65316;BMP280;51920;53.952;10.292;2023-06-22T06:11:23;101660.47;;;18.73
65316;BMP280;51920;53.952;10.292;2023-06-22T06:13:51;101665.72;;;18.88
65316;BMP280;51920;53.952;10.292;2023-06-22T06:16:17;101663.25;;;18.97
65316;BMP280;51920;53.952;10.292;2023-06-22T06:18:44;101658.53;;;18.97
65316;BMP280;51920;53.952;10.292;2023-06-22T06:21:11;101658.53;;;18.97
65316;BMP280;51920;53.952;10.292;2023-06-22T06:23:37;101654.09;;;19.03
65316;BMP280;51920;53.952;10.292;2023-06-22T06:26:04;101649.66;;;19.13
65316;BMP280;51920;53.952;10.292;2023-06-22T06:28:34;101649.88;;;19.22
65316;BMP280;51920;53.952;10.292;2023-06-22T06:31:01;101644.72;;;19.24
65316;BMP280;51920;53.952;10.292;2023-06-22T06:33:28;101644.59;;;19.32
65316;BMP280;51920;53.952;10.292;2023-06-22T06:35:55;101644.34;;;19.46
65316;BMP280;51920;53.952;10.292;2023-06-22T06:38:22;101643.16;;;19.67
65316;BMP280;51920;53.952;10.292;2023-06-22T06:40:50;101660.38;;;19.91
65316;BMP280;51920;53.952;10.292;2023-06-22T06:43:16;101656.72;;;20.14
65316;BMP280;51920;53.952;10.292;2023-06-22T06:45:43;101656.88;;;20.59
65316;BMP280;51920;53.952;10.292;2023-06-22T06:48:10;101648.41;;;20.83
65316;BMP280;51920;53.952;10.292;2023-06-22T06:50:37;101652.53;;;21.07
65316;BMP280;51920;53.952;10.292;2023-06-22T06:53:04;101652.34;;;21.44
65316;BMP280;51920;53.952;10.292;2023-06-22T06:55:31;101649.34;;;21.67
65316;BMP280;51920;53.952;10.292;2023-06-22T06:57:59;101661.25;;;21.90
65316;BMP280;51920;53.952;10.292;2023-06-22T07:00:26;101656.31;;;22.23
65316;BMP280;51920;53.952;10.292;2023-06-22T07:02:53;101654.75;;;22.47
65316;BMP280;51920;53.952;10.292;2023-06-22T07:05:20;101654.19;;;22.87
65316;BMP280;51920;53.952;10.292;2023-06-22T07:07:47;101652.81;;;23.05
65316;BMP280;51920;53.952;10.292;2023-06-22T07:10:14;101653.69;;;23.46
65316;BMP280;51920;53.952;10.292;2023-06-22T07:12:42;101646.78;;;23.41
65316;BMP280;51920;53.952;10.292;2023-06-22T07:15:09;101653.47;;;23.09
65316;BMP280;51920;53.952;10.292;2023-06-22T07:17:37;101654.69;;;23.08
65316;BMP280;51920;53.952;10.292;2023-06-22T07:20:04;101652.63;;;23.21
65316;BMP280;51920;53.952;10.292;2023-06-22T07:22:39;101654.91;;;23.35
65316;BMP280;51920;53.952;10.292;2023-06-22T07:25:06;101666.69;;;23.58
65316;BMP280;51920;53.952;10.292;2023-06-22T07:28:06;101659.53;;;24.01
65316;BMP280;51920;53.952;10.292;2023-06-22T07:30:33;101676.03;;;24.23
65316;BMP280;51920;53.952;10.292;2023-06-22T07:33:00;101663.34;;;24.62
65316;BMP280;51920;53.952;10.292;2023-06-22T07:35:31;101666.38;;;24.27
65316;BMP280;51920;53.952;10.292;2023-06-22T07:37:58;101665.50;;;24.49
65316;BMP280;51920;53.952;10.292;2023-06-22T07:40:25;101670.56;;;24.50
65316;BMP280;51920;53.952;10.292;2023-06-22T07:42:52;101661.47;;;24.50
65316;BMP280;51920;53.952;10.292;2023-06-22T07:45:20;101667.34;;;25.16
65316;BMP280;51920;53.952;10.292;2023-06-22T07:47:47;101676.88;;;24.51
65316;BMP280;51920;53.952;10.292;2023-06-22T07:50:14;101666.75;;;24.94
65316;BMP280;51920;53.952;10.292;2023-06-22T07:52:41;101667.97;;;25.20
65316;BMP280;51920;53.952;10.292;2023-06-22T07:55:08;101661.63;;;25.29
65316;BMP280;51920;53.952;10.292;2023-06-22T07:57:35;101662.44;;;25.02
65316;BMP280;51920;53.952;10.292;2023-06-22T08:00:04;101667.06;;;25.05
65316;BMP280;51920;53.952;10.292;2023-06-22T08:02:40;101663.19;;;25.21
65316;BMP280;51920;53.952;10.292;2023-06-22T08:05:10;101670.69;;;25.48
65316;BMP280;51920;53.952;10.292;2023-06-22T08:07:45;101665.19;;;25.11
65316;BMP280;51920;53.952;10.292;2023-06-22T08:10:13;101672.19;;;25.49
65316;BMP280;51920;53.952;10.292;2023-06-22T08:12:40;101667.69;;;25.61
65316;BMP280;51920;53.952;10.292;2023-06-22T08:15:07;101660.72;;;25.23
65316;BMP280;51920;53.952;10.292;2023-06-22T08:17:36;101664.00;;;25.64
65316;BMP280;51920;53.952;10.292;2023-06-22T08:20:04;101656.84;;;26.05
65316;BMP280;51920;53.952;10.292;2023-06-22T08:22:36;101662.63;;;25.92
65316;BMP280;51920;53.952;10.292;2023-06-22T08:25:04;101668.03;;;25.53
65316;BMP280;51920;53.952;10.292;2023-06-22T08:27:31;101663.53;;;25.65
65316;BMP280;51920;53.952;10.292;2023-06-22T08:30:01;101663.34;;;26.50
65316;BMP280;51920;53.952;10.292;2023-06-22T08:32:28;101667.94;;;26.53
65316;BMP280;51920;53.952;10.292;2023-06-22T08:34:56;101663.72;;;26.43
65316;BMP280;51920;53.952;10.292;2023-06-22T08:37:24;101667.25;;;26.19
65316;BMP280;51920;53.952;10.292;2023-06-22T08:39:59;101668.00;;;26.29
65316;BMP280;51920;53.952;10.292;2023-06-22T08:42:26;101668.09;;;26.59
65316;BMP280;51920;53.952;10.292;2023-06-22T08:44:53;101660.09;;;26.51
65316;BMP280;51920;53.952;10.292;2023-06-22T08:47:20;101649.28;;;26.53
65316;BMP280;51920;53.952;10.292;2023-06-22T08:49:48;101643.28;;;26.85
65316;BMP280;51920;53.952;10.292;2023-06-22T08:52:15;101652.13;;;26.98
65316;BMP280;51920;53.952;10.292;2023-06-22T08:54:42;101644.34;;;27.17
65316;BMP280;51920;53.952;10.292;2023-06-22T08:57:09;101646.84;;;27.29
65316;BMP280;51920;53.952;10.292;2023-06-22T08:59:36;101648.75;;;27.23
65316;BMP280;51920;53.952;10.292;2023-06-22T09:02:03;101642.22;;;26.97
65316;BMP280;51920;53.952;10.292;2023-06-22T09:04:30;101646.91;;;27.05
65316;BMP280;51920;53.952;10.292;2023-06-22T09:07:01;101645.13;;;27.67
65316;BMP280;51920;53.952;10.292;2023-06-22T09:09:29;101643.38;;;27.35
65316;BMP280;51920;53.952;10.292;2023-06-22T09:11:56;101644.22;;;27.56
65316;BMP280;51920;53.952;10.292;2023-06-22T09:14:22;101639.00;;;27.84
65316;BMP280;51920;53.952;10.292;2023-06-22T09:16:49;101639.34;;;27.71
65316;BMP280;51920;53.952;10.292;2023-06-22T09:19:16;101627.72;;;27.52
65316;BMP280;51920;53.952;10.292;2023-06-22T09:21:43;101643.44;;;27.25
65316;BMP280;51920;53.952;10.292;2023-06-22T09:24:10;101635.63;;;26.94
65316;BMP280;51920;53.952;10.292;2023-06-22T09:26:37;101626.41;;;26.88
65316;BMP280;51920;53.952;10.292;2023-06-22T09:29:07;101624.66;;;27.05
65316;BMP280;51920;53.952;10.292;2023-06-22T09:31:33;101625.75;;;27.08
65316;BMP280;51920;53.952;10.292;2023-06-22T09:34:00;101622.69;;;26.91
65316;BMP280;51920;53.952;10.292;2023-06-22T09:36:27;101615.22;;;26.97
65316;BMP280;51920;53.952;10.292;2023-06-22T09:38:54;101621.81;;;26.85
65316;BMP280;51920;53.952;10.292;2023-06-22T09:41:25;101610.41;;;26.98
65316;BMP280;51920;53.952;10.292;2023-06-22T09:43:52;101615.97;;;27.48
65316;BMP280;51920;53.952;10.292;2023-06-22T09:46:21;101613.06;;;27.57
65316;BMP280;51920;53.952;10.292;2023-06-22T09:48:51;101613.03;;;27.92
65316;BMP280;51920;53.952;10.292;2023-06-22T09:51:19;101621.91;;;27.91
65316;BMP280;51920;53.952;10.292;2023-06-22T09:53:48;101613.94;;;27.84
65316;BMP280;51920;53.952;10.292;2023-06-22T09:56:15;101617.00;;;27.30
65316;BMP280;51920;53.952;10.292;2023-06-22T09:58:44;101603.66;;;27.90
65316;BMP280;51920;53.952;10.292;2023-06-22T10:01:12;101616.38;;;28.17
65316;BMP280;51920;53.952;10.292;2023-06-22T10:03:41;101611.16;;;28.50
65316;BMP280;51920;53.952;10.292;2023-06-22T10:06:08;101609.53;;;28.64
65316;BMP280;51920;53.952;10.292;2023-06-22T10:08:35;101606.72;;;28.12
65316;BMP280;51920;53.952;10.292;2023-06-22T10:11:03;101604.59;;;28.53
65316;BMP280;51920;53.952;10.292;2023-06-22T10:13:30;101606.75;;;28.64
65316;BMP280;51920;53.952;10.292;2023-06-22T10:15:57;101601.09;;;28.33
65316;BMP280;51920;53.952;10.292;2023-06-22T10:18:24;101601.16;;;28.64
65316;BMP280;51920;53.952;10.292;2023-06-22T10:20:51;101601.47;;;28.72
65316;BMP280;51920;53.952;10.292;2023-06-22T10:23:19;101598.88;;;28.94
65316;BMP280;51920;53.952;10.292;2023-06-22T10:25:47;101586.19;;;28.93
65316;BMP280;51920;53.952;10.292;2023-06-22T10:28:14;101591.94;;;28.52
65316;BMP280;51920;53.952;10.292;2023-06-22T10:30:42;101590.78;;;28.39
65316;BMP280;51920;53.952;10.292;2023-06-22T10:33:09;101586.94;;;28.36
65316;BMP280;51920;53.952;10.292;2023-06-22T10:35:37;101583.78;;;28.49
65316;BMP280;51920;53.952;10.292;2023-06-22T10:38:05;101578.19;;;28.75
65316;BMP280;51920;53.952;10.292;2023-06-22T10:40:32;101581.22;;;29.09
65316;BMP280;51920;53.952;10.292;2023-06-22T10:42:59;101590.31;;;29.03
65316;BMP280;51920;53.952;10.292;2023-06-22T10:45:26;101580.22;;;29.06
65316;BMP280;51920;53.952;10.292;2023-06-22T10:47:53;101573.53;;;28.92
65316;BMP280;51920;53.952;10.292;2023-06-22T10:50:20;101583.31;;;28.82
65316;BMP280;51920;53.952;10.292;2023-06-22T10:52:47;101586.59;;;29.12
65316;BMP280;51920;53.952;10.292;2023-06-22T10:55:14;101584.81;;;29.09
65316;BMP280;51920;53.952;10.292;2023-06-22T10:57:41;101580.81;;;29.21
65316;BMP280;51920;53.952;10.292;2023-06-22T11:00:14;101571.19;;;28.85
65316;BMP280;51920;53.952;10.292;2023-06-22T11:02:42;101565.75;;;28.70
65316;BMP280;51920;53.952;10.292;2023-06-22T11:05:09;101562.81;;;28.27
65316;BMP280;51920;53.952;10.292;2023-06-22T11:07:37;101564.53;;;28.77
65316;BMP280;51920;53.952;10.292;2023-06-22T11:10:10;101563.44;;;28.69
65316;BMP280;51920;53.952;10.292;2023-06-22T11:12:37;101563.13;;;28.61
65316;BMP280;51920;53.952;10.292;2023-06-22T11:15:04;101558.63;;;29.01
65316;BMP280;51920;53.952;10.292;2023-06-22T11:17:31;101563.78;;;28.82
65316;BMP280;51920;53.952;10.292;2023-06-22T11:19:58;101560.38;;;28.67
65316;BMP280;51920;53.952;10.292;2023-06-22T11:22:26;101555.91;;;28.49
65316;BMP280;51920;53.952;10.292;2023-06-22T11:24:53;101550.94;;;28.33
65316;BMP280;51920;53.952;10.292;2023-06-22T11:27:22;101543.06;;;28.57
65316;BMP280;51920;53.952;10.292;2023-06-22T11:29:48;101540.00;;;28.55
65316;BMP280;51920;53.952;10.292;2023-06-22T11:32:16;101538.59;;;28.65
65316;BMP280;51920;53.952;10.292;2023-06-22T11:34:42;101512.84;;;27.98
65316;BMP280;51920;53.952;10.292;2023-06-22T11:37:09;101532.41;;;28.56
65316;BMP280;51920;53.952;10.292;2023-06-22T11:39:36;101525.16;;;28.69
65316;BMP280;51920;53.952;10.292;2023-06-22T11:42:04;101526.91;;;28.35
65316;BMP280;51920;53.952;10.292;2023-06-22T11:44:30;101527.22;;;28.43
65316;BMP280;51920;53.952;10.292;2023-06-22T11:46:57;101523.34;;;28.66
65316;BMP280;51920;53.952;10.292;2023-06-22T11:49:24;101511.78;;;28.79
65316;BMP280;51920;53.952;10.292;2023-06-22T11:51:50;101527.53;;;29.19
65316;BMP280;51920;53.952;10.292;2023-06-22T11:54:17;101524.72;;;29.19
65316;BMP280;51920;53.952;10.292;2023-06-22T11:56:44;101512.56;;;29.17
65316;BMP280;51920;53.952;10.292;2023-06-22T11:59:10;101498.41;;;29.26
65316;BMP280;51920;53.952;10.292;2023-06-22T12:01:37;101520.00;;;28.88
65316;BMP280;51920;53.952;10.292;2023-06-22T12:04:03;101512.09;;;28.49
65316;BMP280;51920;53.952;10.292;2023-06-22T12:06:32;101515.88;;;28.46
65316;BMP280;51920;53.952;10.292;2023-06-22T12:08:59;101518.75;;;28.95
65316;BMP280;51920;53.952;10.292;2023-06-22T12:11:26;101503.97;;;28.83
65316;BMP280;51920;53.952;10.292;2023-06-22T12:13:52;101492.09;;;28.88
65316;BMP280;51920;53.952;10.292;2023-06-22T12:16:19;101484.34;;;29.09
65316;BMP280;51920;53.952;10.292;2023-06-22T12:18:48;101493.50;;;29.15
65316;BMP280;51920;53.952;10.292;2023-06-22T12:21:14;101491.06;;;29.34
65316;BMP280;51920;53.952;10.292;2023-06-22T12:23:41;101483.75;;;28.94
65316;BMP280;51920;53.952;10.292;2023-06-22T12:26:08;101480.78;;;29.14
65316;BMP280;51920;53.952;10.292;2023-06-22T12:28:34;101481.59;;;29.15
65316;BMP280;51920;53.952;10.292;2023-06-22T12:31:01;101479.91;;;28.91
65316;BMP280;51920;53.952;10.292;2023-06-22T12:33:27;101478.16;;;28.94
65316;BMP280;51920;53.952;10.292;2023-06-22T12:35:54;101475.69;;;29.01
65316;BMP280;51920;53.952;10.292;2023-06-22T12:38:21;101471.50;;;28.80
65316;BMP280;51920;53.952;10.292;2023-06-22T12:40:47;101474.34;;;28.91
65316;BMP280;51920;53.952;10.292;2023-06-22T12:43:15;101451.47;;;28.82
65316;BMP280;51920;53.952;10.292;2023-06-22T12:45:42;101457.56;;;28.80
65316;BMP280;51920;53.952;10.292;2023-06-22T12:48:09;101460.47;;;29.02
65316;BMP280;51920;53.952;10.292;2023-06-22T12:50:35;101456.19;;;29.07
65316;BMP280;51920;53.952;10.292;2023-06-22T12:53:02;101453.81;;;28.89
65316;BMP280;51920;53.952;10.292;2023-06-22T12:55:30;101449.41;;;28.76
65316;BMP280;51920;53.952;10.292;2023-06-22T12:57:57;101450.16;;;28.71
65316;BMP280;51920;53.952;10.292;2023-06-22T13:00:23;101453.81;;;28.51
65316;BMP280;51920;53.952;10.292;2023-06-22T13:02:50;101433.66;;;28.36
65316;BMP280;51920;53.952;10.292;2023-06-22T13:05:17;101425.28;;;28.31
65316;BMP280;51920;53.952;10.292;2023-06-22T13:07:44;101439.44;;;28.27
65316;BMP280;51920;53.952;10.292;2023-06-22T13:10:12;101442.38;;;27.92
65316;BMP280;51920;53.952;10.292;2023-06-22T13:12:38;101446.28;;;28.00
65316;BMP280;51920;53.952;10.292;2023-06-22T13:15:05;101428.97;;;27.90
65316;BMP280;51920;53.952;10.292;2023-06-22T13:17:32;101453.06;;;27.73
65316;BMP280;51920;53.952;10.292;2023-06-22T13:19:59;101441.81;;;27.62
65316;BMP280;51920;53.952;10.292;2023-06-22T13:24:58;101444.38;;;27.45
65316;BMP280;51920;53.952;10.292;2023-06-22T13:27:25;101431.72;;;27.64
65316;BMP280;51920;53.952;10.292;2023-06-22T13:29:52;101450.50;;;27.69
65316;BMP280;51920;53.952;10.292;2023-06-22T13:32:19;101430.19;;;27.63
65316;BMP280;51920;53.952;10.292;2023-06-22T13:34:45;101447.56;;;27.78
65316;BMP280;51920;53.952;10.292;2023-06-22T13:37:12;101429.59;;;27.79
65316;BMP280;51920;53.952;10.292;2023-06-22T13:39:38;101431.59;;;27.73
65316;BMP280;51920;53.952;10.292;2023-06-22T13:42:05;101439.84;;;27.68
65316;BMP280;51920;53.952;10.292;2023-06-22T13:44:32;101433.19;;;27.60
65316;BMP280;51920;53.952;10.292;2023-06-22T13:46:59;101425.81;;;27.77
65316;BMP280;51920;53.952;10.292;2023-06-22T13:49:26;101421.91;;;27.95
65316;BMP280;51920;53.952;10.292;2023-06-22T13:51:53;101426.84;;;28.06
65316;BMP280;51920;53.952;10.292;2023-06-22T13:54:19;101424.28;;;28.02
65316;BMP280;51920;53.952;10.292;2023-06-22T13:56:49;101426.13;;;27.85